Terminal Aerodrome Forecast
Issued by NWS

Home | Current Version | Previous Version | Text Only | Print | Product List | Glossary On
Versions: 1 2 3 4 5 6 7 8 9 10 11 12 13 14 15 16
655
FTUS44 KTSA 211338 AAA
TAFBVO
TAF AMD
KBVO 211338Z 2114/2212 18006KT P6SM SKC
      TEMPO 2114/2118 BKN020
     FM211800 19014G22KT P6SM BKN025
     FM220300 22011KT P6SM BKN100=

USA.gov is the U.S. government's official web portal to all federal, state and local government web resources and services.